Time;durP1;ratioP1;P1;durP2;ratioP2;P2;SDS_P1;SDS_P2;PMS_P1;PMS_P2;Temp;Humidity;BMP_temperature;BMP_pressure;BME280_temperature;BME280_humidity;BME280_pressure;Samples;Min_cycle;Max_cycle;Signal;HPM_P1;HPM_P2
2022/02/10 00:07:04;;;;;;;15.98;9.63;;;28.20;88.30;;;;;;5147498;27;20064;-56
2022/02/10 00:15:52;;;;;;;15.82;10.80;;;28.20;88.60;;;;;;5142831;27;20046;-56
2022/02/10 00:21:20;;;;;;;16.15;9.60;;;28.20;88.60;;;;;;5147100;27;20364;-53
2022/02/10 00:34:31;;;;;;;15.90;9.05;;;28.20;88.80;;;;;;5131857;27;20015;-55
2022/02/10 00:39:56;;;;;;;11.93;8.85;;;28.20;88.70;;;;;;5147242;27;20011;-57
2022/02/10 00:42:20;;;;;;;13.25;9.13;;;28.20;88.80;;;;;;5146626;27;20023;-59
2022/02/10 00:44:47;;;;;;;11.43;8.45;;;28.20;88.80;;;;;;5128421;27;20034;-56
2022/02/10 00:47:13;;;;;;;17.60;9.63;;;28.20;88.90;;;;;;5146818;27;20027;-60
2022/02/10 00:49:41;;;;;;;13.75;8.85;;;28.20;89.00;;;;;;5146762;27;20023;-58
2022/02/10 00:52:08;;;;;;;13.93;8.32;;;28.20;89.00;;;;;;5146401;27;20323;-55
2022/02/10 00:54:38;;;;;;;14.32;8.07;;;28.20;89.00;;;;;;5147061;27;20318;-56
2022/02/10 00:57:07;;;;;;;10.68;7.50;;;28.20;89.10;;;;;;5128614;27;20011;-63
2022/02/10 01:10:32;;;;;;;;;;;28.10;89.40;;;;;;5146886;27;20026;-62
2022/02/10 01:29:41;;;;;;;12.68;7.63;;;28.00;88.80;;;;;;5146192;27;20026;-61
2022/02/10 01:32:08;;;;;;;10.48;7.15;;;28.00;88.80;;;;;;5146024;27;20239;-58
2022/02/10 01:34:42;;;;;;;12.30;6.40;;;28.00;88.70;;;;;;5127721;27;20023;-61
2022/02/10 01:37:12;;;;;;;10.50;5.88;;;28.00;88.60;;;;;;5146368;27;20026;-60
2022/02/10 01:39:45;;;;;;;11.70;6.60;;;28.00;88.50;;;;;;5145895;27;20330;-60
2022/02/10 02:04:24;;;;;;;9.10;4.93;;;27.90;87.10;;;;;;5145222;27;20099;-59
2022/02/10 02:06:54;;;;;;;9.85;5.47;;;27.90;86.90;;;;;;5145451;27;20027;-59
2022/02/10 02:09:21;;;;;;;11.70;5.35;;;27.90;86.80;;;;;;5145088;27;20056;-60
2022/02/10 02:11:55;;;;;;;8.75;5.18;;;27.80;86.50;;;;;;5142327;27;20253;-58
2022/02/10 02:14:27;;;;;;;13.60;5.50;;;27.80;86.50;;;;;;5133543;27;20304;-59
2022/02/10 02:16:57;;;;;;;9.98;5.32;;;27.90;86.80;;;;;;5124714;28;20024;-59
2022/02/10 02:19:24;;;;;;;8.02;5.05;;;27.80;86.50;;;;;;5124525;28;20023;-58
2022/02/10 02:21:51;;;;;;;37.08;32.97;;;27.80;86.50;;;;;;5124962;28;20027;-60
2022/02/10 02:24:22;;;;;;;55.90;50.60;;;27.80;86.60;;;;;;5124447;28;20022;-59
2022/02/10 02:26:53;;;;;;;22.45;18.60;;;27.80;86.50;;;;;;5124945;28;20023;-61
2022/02/10 02:29:28;;;;;;;18.15;15.50;;;27.80;86.50;;;;;;5124977;28;20019;-60
2022/02/10 02:31:59;;;;;;;12.23;9.15;;;27.80;86.30;;;;;;5129076;28;20023;-60
2022/02/10 03:04:58;;;;;;;9.48;4.47;;;27.60;85.70;;;;;;5128080;28;20167;-60
2022/02/10 03:07:49;;;;;;;9.25;4.78;;;27.70;85.60;;;;;;5128397;28;20062;-60
2022/02/10 03:12:39;;;;;;;15.60;13.05;;;27.60;85.10;;;;;;5127755;28;20051;-59
2022/02/10 03:15:13;;;;;;;49.03;43.85;;;27.60;85.30;;;;;;5127999;28;20019;-60
2022/02/10 03:17:53;;;;;;;41.53;37.33;;;27.60;85.30;;;;;;5109592;28;20046;-60
2022/02/10 04:18:03;;;;;;;;;;;27.30;84.10;;;;;;5127645;28;20016;-60
2022/02/10 04:58:48;;;;;;;9.88;4.00;;;27.40;82.40;;;;;;5103235;28;20016;-55
2022/02/10 05:01:49;;;;;;;9.23;3.72;;;27.40;82.20;;;;;;5125695;28;20023;-56
2022/02/10 05:04:40;;;;;;;8.38;3.92;;;27.30;82.10;;;;;;5125775;28;20312;-55
2022/02/10 05:20:14;;;;;;;9.75;3.65;;;27.30;82.30;;;;;;5125420;28;20323;-55
2022/02/10 05:22:47;;;;;;;;;;;27.30;82.30;;;;;;5126008;28;20031;-56
2022/02/10 05:36:01;;;;;;;8.13;3.65;;;27.30;82.00;;;;;;5125134;28;20054;-63
2022/02/10 05:38:33;;;;;;;7.72;3.50;;;27.30;81.80;;;;;;5125270;28;20022;-55
2022/02/10 05:52:27;;;;;;;8.25;4.32;;;27.30;82.30;;;;;;5042352;28;20034;-56
2022/02/10 05:55:09;;;;;;;12.32;4.97;;;27.30;82.60;;;;;;5042283;28;20022;-58
2022/02/10 06:51:53;;;;;;;7.22;3.58;;;27.20;82.20;;;;;;5124619;28;20317;-57
2022/02/10 07:03:09;;;;;;;8.07;3.40;;;27.20;81.20;;;;;;5124184;28;20065;-56
2022/02/10 07:16:47;;;;;;;9.05;3.63;;;27.10;80.30;;;;;;5125968;28;20026;-56
2022/02/10 07:53:15;;;;;;;7.45;2.95;;;27.10;78.50;;;;;;5103003;28;20053;-58
2022/02/10 07:58:05;;;;;;;7.82;2.85;;;27.10;78.40;;;;;;5127156;28;20053;-59
2022/02/10 08:55:48;;;;;;;10.10;5.45;;;27.00;77.80;;;;;;5121012;28;20059;-55
2022/02/10 09:06:24;;;;;;;7.40;4.03;;;26.90;78.10;;;;;;5125998;28;20034;-54
2022/02/10 10:02:56;;;;;;;8.07;3.95;;;26.80;78.20;;;;;;5123862;28;20024;-63
2022/02/10 10:05:30;;;;;;;7.00;3.45;;;26.80;78.20;;;;;;5124456;28;20028;-59
2022/02/10 10:15:51;;;;;;;5.00;3.40;;;26.80;78.00;;;;;;5124688;28;20047;-57
2022/02/10 10:21:12;;;;;;;8.38;3.50;;;26.80;78.10;;;;;;5124669;28;20047;-59
2022/02/10 10:57:22;;;;;;;10.88;4.13;;;26.80;79.50;;;;;;5128683;28;20226;-59
2022/02/10 12:36:48;;;;;;;15.70;6.22;;;27.00;80.60;;;;;;5086242;28;20059;-54
2022/02/10 12:42:06;;;;;;;13.15;5.55;;;27.10;80.80;;;;;;5085788;28;20143;-64
2022/02/10 13:25:01;;;;;;;9.07;4.47;;;27.20;81.70;;;;;;5105700;28;20047;-55
2022/02/10 13:31:11;;;;;;;9.65;4.60;;;27.20;81.60;;;;;;5086610;28;19903;-59
2022/02/10 14:09:12;;;;;;;33.30;5.72;;;27.40;82.50;;;;;;5104883;28;20019;-59
2022/02/10 14:14:22;;;;;;;36.85;6.13;;;27.50;83.30;;;;;;5104576;28;20012;-58
2022/02/10 14:17:01;;;;;;;19.80;4.47;;;27.40;83.30;;;;;;5104440;28;20093;-54
2022/02/10 14:19:39;;;;;;;22.10;4.63;;;27.50;83.20;;;;;;5104286;28;20062;-58
2022/02/10 14:27:21;;;;;;;25.90;5.28;;;27.50;83.20;;;;;;5104766;28;20027;-56
2022/02/10 14:29:48;;;;;;;19.70;5.05;;;27.50;83.20;;;;;;5104061;28;20016;-57
2022/02/10 14:32:18;;;;;;;18.95;5.13;;;27.50;83.20;;;;;;5104702;28;20069;-56
2022/02/10 14:34:47;;;;;;;13.40;4.68;;;27.50;83.10;;;;;;5104383;28;20031;-55
2022/02/10 14:40:01;;;;;;;11.40;4.57;;;27.50;83.30;;;;;;5104403;28;20046;-55
2022/02/10 15:13:54;;;;;;;14.32;5.05;;;27.50;82.90;;;;;;5103206;28;20093;-58
2022/02/10 15:16:29;;;;;;;11.20;5.00;;;27.50;82.60;;;;;;5103125;28;20016;-59
2022/02/10 15:48:48;;;;;;;27.73;7.85;;;27.60;82.00;;;;;;5107255;28;20079;-55
2022/02/10 15:56:34;;;;;;;51.40;10.35;;;27.60;82.00;;;;;;5106671;28;20027;-57
2022/02/10 16:17:37;;;;;;;48.92;11.25;;;27.70;82.90;;;;;;5106764;28;20008;-56
2022/02/10 16:20:07;;;;;;;49.45;11.18;;;27.70;82.70;;;;;;5106958;28;20008;-54
2022/02/10 16:22:46;;;;;;;65.18;12.85;;;27.80;82.80;;;;;;5106601;28;20039;-59
2022/02/10 16:25:17;;;;;;;37.70;9.93;;;27.80;83.00;;;;;;5106458;28;20327;-56
2022/02/10 16:27:50;;;;;;;39.75;10.13;;;27.80;83.40;;;;;;5106490;28;20039;-57
2022/02/10 16:30:18;;;;;;;30.17;9.15;;;27.80;83.60;;;;;;5106408;28;20031;-57
2022/02/10 16:32:45;;;;;;;35.28;9.88;;;27.80;83.30;;;;;;5106631;28;20062;-56
2022/02/10 16:35:11;;;;;;;28.17;8.52;;;27.80;83.20;;;;;;5106633;28;20019;-58
2022/02/10 16:37:41;;;;;;;36.05;9.70;;;27.80;83.30;;;;;;5106633;28;20072;-56
2022/02/10 16:40:08;;;;;;;61.25;11.27;;;27.80;83.30;;;;;;5106492;28;20082;-55
2022/02/10 16:42:34;;;;;;;29.88;9.40;;;27.80;83.40;;;;;;5106323;28;20082;-56
2022/02/10 16:45:01;;;;;;;56.78;11.25;;;27.80;83.50;;;;;;5105722;28;20027;-58
2022/02/10 16:47:27;;;;;;;60.67;12.55;;;27.80;83.60;;;;;;5106749;28;20091;-55
2022/02/10 16:49:54;;;;;;;42.85;10.88;;;27.90;83.90;;;;;;5105885;28;20020;-55
2022/02/10 16:52:26;;;;;;;44.05;10.10;;;27.90;83.70;;;;;;5106680;28;20322;-52
2022/02/10 16:55:04;;;;;;;37.63;10.27;;;27.90;83.70;;;;;;5106396;28;20027;-56
2022/02/10 16:57:42;;;;;;;34.53;9.18;;;27.90;83.90;;;;;;5106102;28;20028;-56
2022/02/10 17:19:15;;;;;;;21.10;7.75;;;28.00;84.40;;;;;;5105580;28;20077;-59
2022/02/10 17:27:54;;;;;;;17.77;7.25;;;28.00;84.70;;;;;;5105385;28;20239;-58
2022/02/10 17:32:51;;;;;;;8.60;6.57;;;28.00;84.70;;;;;;5104829;28;20335;-59
2022/02/10 17:46:13;;;;;;;9.45;6.35;;;28.10;85.10;;;;;;5104818;28;20357;-56
2022/02/10 17:53:55;;;;;;;10.68;6.63;;;28.10;85.60;;;;;;5104316;28;20031;-55
2022/02/10 17:56:23;;;;;;;10.07;6.70;;;28.00;85.80;;;;;;5104866;28;20020;-59
2022/02/10 17:58:50;;;;;;;10.23;7.00;;;28.00;85.80;;;;;;5104422;28;20019;-56
2022/02/10 18:01:17;;;;;;;10.93;7.00;;;28.00;85.80;;;;;;5103900;28;20083;-57
2022/02/10 18:03:44;;;;;;;8.10;6.80;;;28.00;85.80;;;;;;5104489;28;20066;-56
2022/02/10 18:06:28;;;;;;;10.65;7.45;;;28.00;85.60;;;;;;5104081;28;20323;-56
2022/02/10 18:14:03;;;;;;;23.08;9.43;;;28.00;85.70;;;;;;5104348;28;20024;-56
2022/02/10 18:16:35;;;;;;;25.17;10.02;;;28.00;85.70;;;;;;5104320;28;20028;-56
2022/02/10 18:19:27;;;;;;;;;;;28.00;85.80;;;;;;5104360;28;20020;-65
2022/02/10 18:24:45;;;;;;;17.42;8.48;;;28.00;86.00;;;;;;5104445;28;20012;-57
2022/02/10 18:37:16;;;;;;;9.23;8.20;;;27.90;86.50;;;;;;5104544;28;20070;-55
2022/02/10 19:10:11;;;;;;;12.90;6.60;;;27.90;87.80;;;;;;5103076;28;20039;-59
2022/02/10 19:12:44;;;;;;;;;;;27.90;88.00;;;;;;5096463;28;20040;-56
2022/02/10 19:17:46;;;;;;;21.50;14.80;;;27.90;88.20;;;;;;5087373;28;20005;-56
2022/02/10 19:20:14;;;;;;;15.45;10.80;;;27.90;88.30;;;;;;5087602;28;20013;-54
2022/02/10 19:22:41;;;;;;;11.57;8.40;;;27.90;88.30;;;;;;5087141;28;20017;-58
2022/02/10 19:25:08;;;;;;;9.18;7.32;;;27.90;88.40;;;;;;5086802;28;20023;-58
2022/02/10 19:27:40;;;;;;;8.02;6.65;;;27.90;88.70;;;;;;5087004;28;20020;-56
2022/02/10 19:30:10;;;;;;;8.65;6.75;;;27.90;88.90;;;;;;5087172;28;20021;-60
2022/02/10 19:32:44;;;;;;;8.45;6.80;;;27.90;89.20;;;;;;5086784;28;20095;-55
2022/02/10 19:35:12;;;;;;;8.98;6.70;;;27.90;89.00;;;;;;5086646;28;20139;-55
2022/02/10 19:37:39;;;;;;;8.02;6.63;;;27.90;88.80;;;;;;5086896;28;20021;-56
2022/02/10 19:40:06;;;;;;;10.02;7.07;;;27.90;88.70;;;;;;5086667;28;20013;-55
2022/02/10 19:42:36;;;;;;;9.40;6.30;;;27.90;88.70;;;;;;5086645;28;20088;-59
2022/02/10 19:45:05;;;;;;;10.32;6.80;;;27.90;88.70;;;;;;5086747;28;20025;-58
2022/02/10 19:47:35;;;;;;;8.55;7.13;;;28.00;88.90;;;;;;5086600;28;20033;-58
2022/02/10 19:50:09;;;;;;;8.88;7.30;;;28.00;88.60;;;;;;5086599;28;20020;-55
2022/02/10 19:52:40;;;;;;;12.25;9.55;;;28.00;88.40;;;;;;5086198;28;20028;-61
2022/02/10 19:55:12;;;;;;;9.98;8.35;;;28.00;88.30;;;;;;5088620;28;20312;-55
2022/02/10 19:57:40;;;;;;;12.73;9.38;;;28.00;88.60;;;;;;5095248;28;20058;-56
2022/02/10 20:00:12;;;;;;;11.45;9.32;;;28.00;88.40;;;;;;5093754;28;20208;-55
2022/02/10 20:02:39;;;;;;;11.98;8.75;;;28.10;88.20;;;;;;5085849;28;20308;-53
2022/02/10 20:05:06;;;;;;;11.27;8.88;;;28.00;88.00;;;;;;5085719;28;20025;-52
2022/02/10 20:07:37;;;;;;;13.05;8.25;;;28.10;88.20;;;;;;5092233;28;20235;-53
2022/02/10 20:10:05;;;;;;;9.52;8.52;;;28.10;88.40;;;;;;5094292;28;20016;-53
2022/02/10 20:12:32;;;;;;;8.05;7.13;;;28.10;88.50;;;;;;5095017;28;20044;-54
2022/02/10 20:14:59;;;;;;;11.32;7.22;;;28.10;88.50;;;;;;5106672;28;20020;-54
2022/02/10 20:17:26;;;;;;;8.40;7.05;;;28.10;88.70;;;;;;5107162;28;20069;-57
2022/02/10 20:19:53;;;;;;;9.50;6.70;;;28.10;88.70;;;;;;5106439;28;20023;-54
2022/02/10 20:22:19;;;;;;;9.98;7.40;;;28.10;88.60;;;;;;5107382;28;20168;-61
2022/02/10 20:25:06;;;;;;;12.57;6.50;;;28.10;88.50;;;;;;5107819;28;20054;-59
2022/02/10 20:27:33;;;;;;;7.43;6.25;;;28.10;88.50;;;;;;5107980;28;20059;-53
2022/02/10 20:29:59;;;;;;;10.35;6.45;;;28.10;88.20;;;;;;5106632;28;20069;-61
2022/02/10 20:32:26;;;;;;;8.90;6.80;;;28.10;88.00;;;;;;5106877;28;20023;-57
2022/02/10 20:34:54;;;;;;;8.40;6.95;;;28.10;87.90;;;;;;5106372;28;20016;-53
2022/02/10 20:37:23;;;;;;;8.57;6.85;;;28.10;87.80;;;;;;5106715;28;20346;-53
2022/02/10 20:39:50;;;;;;;8.13;6.47;;;28.20;87.80;;;;;;5106030;28;20016;-54
2022/02/10 20:42:19;;;;;;;8.02;6.38;;;28.20;87.80;;;;;;5106701;28;20073;-53
2022/02/10 20:44:52;;;;;;;7.35;6.05;;;28.20;87.90;;;;;;5106109;28;20047;-53
2022/02/10 20:47:21;;;;;;;8.50;6.00;;;28.20;87.70;;;;;;5108191;28;20020;-53
2022/02/10 20:49:47;;;;;;;7.10;6.15;;;28.20;87.40;;;;;;5114750;28;20020;-54
2022/02/10 20:52:14;;;;;;;9.95;6.65;;;28.20;87.60;;;;;;5106493;28;20054;-55
2022/02/10 20:54:42;;;;;;;8.85;6.00;;;28.20;86.70;;;;;;5105805;28;20012;-61
2022/02/10 20:57:09;;;;;;;11.10;6.15;;;28.20;85.80;;;;;;5106004;28;20051;-56
2022/02/10 20:59:40;;;;;;;7.97;5.82;;;28.20;85.20;;;;;;5117878;28;20027;-53
2022/02/10 21:02:12;;;;;;;6.47;5.85;;;28.20;85.30;;;;;;5126575;28;20027;-56
2022/02/10 21:05:05;;;;;;;8.82;5.75;;;28.20;85.20;;;;;;5126338;28;20047;-53
2022/02/10 21:07:36;;;;;;;6.50;5.80;;;28.20;84.70;;;;;;5125517;28;20035;-55
2022/02/10 21:10:09;;;;;;;7.80;5.90;;;28.30;84.10;;;;;;5126206;28;20290;-59
2022/02/10 21:12:39;;;;;;;8.15;5.80;;;28.30;83.80;;;;;;5125587;28;20044;-54
2022/02/10 21:15:11;;;;;;;9.02;5.38;;;28.30;83.50;;;;;;5125912;28;20043;-55
2022/02/10 21:17:37;;;;;;;10.60;5.68;;;28.30;83.70;;;;;;5126004;28;20164;-58
2022/02/10 21:20:06;;;;;;;9.30;5.55;;;28.40;83.60;;;;;;5125708;28;20015;-53
2022/02/10 21:22:37;;;;;;;9.05;5.63;;;28.40;83.30;;;;;;5125985;28;20073;-55
2022/02/10 21:25:18;;;;;;;12.25;6.07;;;28.40;83.20;;;;;;5125867;28;20078;-55
2022/02/10 21:27:48;;;;;;;8.07;6.15;;;28.40;82.40;;;;;;5126024;28;20031;-58
2022/02/10 21:30:16;;;;;;;9.48;5.70;;;28.40;82.00;;;;;;5125844;28;20022;-54
2022/02/10 21:32:56;;;;;;;9.50;5.80;;;28.40;82.30;;;;;;5125619;28;20018;-55
2022/02/10 21:35:46;;;;;;;9.02;5.60;;;28.40;82.20;;;;;;5125638;28;20016;-56
2022/02/10 21:38:19;;;;;;;7.95;5.60;;;28.40;81.60;;;;;;5125303;28;20012;-58
2022/02/10 21:44:32;;;;;;;9.18;5.70;;;28.40;81.80;;;;;;5125511;28;20024;-54
2022/02/10 22:08:36;;;;;;;12.45;7.40;;;28.40;80.60;;;;;;5124865;28;20383;-56
2022/02/10 22:21:33;;;;;;;8.60;6.57;;;28.40;81.00;;;;;;5124966;28;20086;-58
2022/02/10 22:24:02;;;;;;;14.32;7.00;;;28.40;81.20;;;;;;5124994;28;20016;-57
2022/02/10 22:26:31;;;;;;;10.75;6.22;;;28.40;81.30;;;;;;5124661;28;20257;-59
2022/02/10 22:37:01;;;;;;;9.32;6.28;;;28.40;81.40;;;;;;5124610;28;20019;-56
2022/02/10 22:39:30;;;;;;;;;;;28.40;81.40;;;;;;5124736;28;20070;-57
2022/02/10 22:41:56;;;;;;;10.52;6.45;;;28.40;82.70;;;;;;5124774;28;19926;-61
2022/02/10 22:44:23;;;;;;;9.23;6.63;;;28.40;83.30;;;;;;5124565;28;20031;-56
2022/02/10 22:46:49;;;;;;;12.63;7.07;;;28.40;83.30;;;;;;5126108;28;20087;-55
2022/02/10 22:49:16;;;;;;;11.25;6.70;;;28.40;84.30;;;;;;5128428;28;20070;-60
2022/02/10 22:51:43;;;;;;;14.55;6.78;;;28.40;84.60;;;;;;5129063;28;20063;-59
2022/02/10 22:54:13;;;;;;;11.90;7.03;;;28.40;84.30;;;;;;5128489;28;20303;-58
2022/02/10 22:56:43;;;;;;;12.82;6.88;;;28.40;83.40;;;;;;5127746;28;20061;-55
2022/02/10 22:59:10;;;;;;;15.32;6.93;;;28.40;83.10;;;;;;5126564;28;20047;-57
2022/02/10 23:01:41;;;;;;;9.82;7.03;;;28.40;82.90;;;;;;5126787;28;20027;-56
2022/02/10 23:04:08;;;;;;;11.38;7.47;;;28.30;82.80;;;;;;5126840;28;20197;-57
2022/02/10 23:06:36;;;;;;;12.98;8.52;;;28.30;82.70;;;;;;5126974;28;20203;-57
2022/02/10 23:12:03;;;;;;;18.33;10.48;;;28.30;82.60;;;;;;5092501;28;20036;-55
2022/02/10 23:14:30;;;;;;;19.23;10.52;;;28.30;82.60;;;;;;5110330;28;20035;-60
2022/02/10 23:16:59;;;;;;;18.50;12.70;;;28.30;82.60;;;;;;5109982;28;20037;-56
2022/02/10 23:19:26;;;;;;;19.65;14.27;;;28.30;82.50;;;;;;5128273;28;20091;-58
2022/02/10 23:21:52;;;;;;;17.48;13.20;;;28.30;82.50;;;;;;5128402;28;20024;-57
2022/02/10 23:24:19;;;;;;;13.15;10.82;;;28.30;82.40;;;;;;5128020;28;20077;-54
2022/02/10 23:26:46;;;;;;;14.35;9.38;;;28.30;82.30;;;;;;5128229;28;20353;-59
2022/02/10 23:29:12;;;;;;;10.98;8.48;;;28.20;82.20;;;;;;5127679;28;20047;-57
2022/02/10 23:31:39;;;;;;;11.05;7.97;;;28.20;82.20;;;;;;5127729;28;20085;-56
2022/02/10 23:34:06;;;;;;;10.90;7.65;;;28.20;82.20;;;;;;5127848;28;20023;-56
2022/02/10 23:39:34;;;;;;;8.27;7.40;;;28.20;82.20;;;;;;5127627;28;20043;-54
2022/02/10 23:44:34;;;;;;;9.95;7.00;;;28.20;82.10;;;;;;5127457;28;20020;-57
2022/02/10 23:47:03;;;;;;;8.85;6.80;;;28.20;82.00;;;;;;5127908;28;20022;-61
2022/02/10 23:49:33;;;;;;;10.05;6.57;;;28.20;82.00;;;;;;5127297;28;20042;-57
2022/02/10 23:52:03;;;;;;;10.40;6.82;;;28.20;81.90;;;;;;5127719;28;20016;-56
2022/02/10 23:54:33;;;;;;;8.35;6.65;;;28.20;82.00;;;;;;5118621;28;20024;-56
2022/02/10 23:57:15;;;;;;;8.45;6.95;;;28.10;81.80;;;;;;5127977;28;20076;-60
